createdAt,value
2023-03-28T00:02:18.822Z,18.89
2023-03-28T00:04:49.976Z,18.89
2023-03-28T00:07:17.212Z,18.89
2023-03-28T00:09:44.781Z,18.85
2023-03-28T00:12:11.968Z,18.84
2023-03-28T00:14:42.866Z,18.71
2023-03-28T00:17:13.856Z,18.69
2023-03-28T00:19:50.970Z,18.81
2023-03-28T00:22:21.588Z,18.93
2023-03-28T00:24:50.978Z,18.87
2023-03-28T00:27:21.116Z,18.86
2023-03-28T00:29:51.796Z,18.87
2023-03-28T00:32:25.044Z,18.88
2023-03-28T00:34:54.898Z,18.84
2023-03-28T00:37:23.063Z,18.83
2023-03-28T00:39:50.964Z,18.63
2023-03-28T00:42:23.539Z,18.51
2023-03-28T00:44:59.371Z,18.67
2023-03-28T00:47:50.055Z,18.62
2023-03-28T00:50:31.707Z,18.55
2023-03-28T00:53:10.658Z,18.53
2023-03-28T00:55:47.148Z,18.47
2023-03-28T00:58:18.280Z,18.60
2023-03-28T01:00:49.345Z,18.52
2023-03-28T01:03:19.376Z,18.51
2023-03-28T01:05:48.207Z,18.50
2023-03-28T01:08:25.781Z,18.42
2023-03-28T01:10:55.288Z,18.44
2023-03-28T01:13:30.099Z,18.39
2023-03-28T01:15:59.750Z,18.47
2023-03-28T01:18:27.736Z,18.56
2023-03-28T01:21:13.720Z,18.52
2023-03-28T01:23:43.924Z,18.53
2023-03-28T01:26:28.322Z,18.45
2023-03-28T01:29:36.999Z,18.46
2023-03-28T01:32:13.176Z,18.43
2023-03-28T01:35:04.394Z,18.23
2023-03-28T01:38:09.219Z,18.19
2023-03-28T01:40:36.414Z,18.21
2023-03-28T01:43:51.342Z,18.13
2023-03-28T01:46:27.493Z,18.25
2023-03-28T01:48:57.183Z,18.13
2023-03-28T01:51:36.134Z,18.18
2023-03-28T01:54:25.088Z,18.33
2023-03-28T01:57:13.637Z,18.35
2023-03-28T02:00:13.929Z,18.18
2023-03-28T02:03:14.542Z,18.30
2023-03-28T02:06:01.889Z,18.18
2023-03-28T02:08:34.902Z,18.18
2023-03-28T02:11:26.847Z,18.05
2023-03-28T02:14:19.132Z,18.15
2023-03-28T02:17:15.674Z,17.89
2023-03-28T02:20:11.779Z,18.07
2023-03-28T02:23:18.517Z,18.17
2023-03-28T02:26:09.212Z,18.21
2023-03-28T02:29:02.861Z,18.05
2023-03-28T02:31:36.648Z,18.14
2023-03-28T02:34:04.390Z,18.18
2023-03-28T02:36:41.885Z,18.19
2023-03-28T02:39:39.314Z,18.11
2023-03-28T02:42:28.588Z,18.18
2023-03-28T02:45:14.887Z,18.21
2023-03-28T02:47:56.961Z,18.12
2023-03-28T02:51:04.203Z,18.07
2023-03-28T02:54:11.080Z,18.15
2023-03-28T02:56:51.260Z,18.02
2023-03-28T03:02:44.724Z,18.13
2023-03-28T03:05:12.008Z,18.08
2023-03-28T03:07:40.982Z,18.11
2023-03-28T03:10:10.610Z,18.12
2023-03-28T03:12:38.278Z,17.98
2023-03-28T03:15:13.077Z,17.81
2023-03-28T03:17:52.856Z,17.78
2023-03-28T03:20:27.151Z,17.46
2023-03-28T03:22:57.506Z,17.64
2023-03-28T03:25:24.702Z,17.91
2023-03-28T03:27:57.178Z,17.66
2023-03-28T03:30:24.350Z,17.74
2023-03-28T03:33:10.755Z,17.88
2023-03-28T03:35:42.328Z,17.57
2023-03-28T03:38:09.667Z,17.47
2023-03-28T03:40:36.859Z,17.62
2023-03-28T03:43:09.685Z,17.62
2023-03-28T03:45:40.802Z,17.69
2023-03-28T03:48:11.911Z,17.65
2023-03-28T03:50:42.713Z,17.62
2023-03-28T03:53:15.945Z,17.57
2023-03-28T03:55:50.913Z,17.41
2023-03-28T03:58:20.399Z,17.27
2023-03-28T04:00:49.341Z,17.36
2023-03-28T04:03:30.968Z,17.25
2023-03-28T04:05:58.549Z,17.16
2023-03-28T04:08:26.007Z,17.43
2023-03-28T04:10:53.327Z,17.47
2023-03-28T04:13:21.118Z,17.62
2023-03-28T04:15:53.672Z,17.67
2023-03-28T04:18:38.928Z,17.63
2023-03-28T04:21:09.849Z,17.57
2023-03-28T04:23:48.485Z,17.68
2023-03-28T04:26:45.365Z,17.82
2023-03-28T04:29:13.664Z,17.76
2023-03-28T04:31:50.261Z,17.60
2023-03-28T04:34:39.063Z,17.79
2023-03-28T04:37:12.066Z,17.67
2023-03-28T04:39:49.188Z,17.78
2023-03-28T04:42:35.803Z,17.70
2023-03-28T04:45:13.731Z,17.83
2023-03-28T04:47:42.933Z,17.92
2023-03-28T04:50:16.885Z,17.77
2023-03-28T04:52:44.697Z,17.29
2023-03-28T04:55:12.136Z,17.43
2023-03-28T04:57:40.564Z,17.57
2023-03-28T05:00:10.688Z,17.69
2023-03-28T05:03:14.933Z,17.67
2023-03-28T05:05:53.415Z,17.70
2023-03-28T05:08:23.861Z,17.63
2023-03-28T05:10:55.447Z,17.62
2023-03-28T05:13:23.908Z,17.60
2023-03-28T05:16:02.238Z,17.50
2023-03-28T05:18:48.161Z,17.46
2023-03-28T05:21:19.904Z,17.39
2023-03-28T05:23:53.456Z,17.49
2023-03-28T05:26:24.852Z,17.38
2023-03-28T05:28:52.023Z,17.26
2023-03-28T05:31:21.867Z,17.14
2023-03-28T05:34:10.124Z,17.25
2023-03-28T05:36:44.696Z,17.31
2023-03-28T05:39:21.978Z,17.21
2023-03-28T05:41:50.895Z,17.10
2023-03-28T05:44:20.404Z,17.32
2023-03-28T05:47:07.530Z,17.30
2023-03-28T05:49:34.864Z,17.37
2023-03-28T05:52:02.901Z,17.41
2023-03-28T05:54:30.520Z,17.33
2023-03-28T05:56:57.660Z,17.55
2023-03-28T05:59:26.234Z,17.14
2023-03-28T06:01:53.658Z,17.48
2023-03-28T06:04:21.991Z,17.51
2023-03-28T06:06:51.434Z,17.28
2023-03-28T06:09:25.023Z,17.36
2023-03-28T06:11:59.856Z,17.36
2023-03-28T06:14:27.888Z,17.25
2023-03-28T06:16:57.870Z,17.55
2023-03-28T06:19:27.559Z,17.46
2023-03-28T06:21:58.876Z,17.48
2023-03-28T06:24:26.186Z,17.62
2023-03-28T06:26:54.927Z,17.37
2023-03-28T06:29:24.453Z,17.16
2023-03-28T06:31:59.946Z,17.51
2023-03-28T06:34:30.063Z,17.46
2023-03-28T06:37:02.031Z,17.53
2023-03-28T06:39:45.702Z,17.55
2023-03-28T06:42:15.338Z,17.69
2023-03-28T06:44:52.843Z,17.83
2023-03-28T06:47:37.311Z,17.49
2023-03-28T06:50:05.778Z,17.89
2023-03-28T06:52:55.792Z,17.95
2023-03-28T06:55:23.185Z,18.03
2023-03-28T06:57:53.015Z,17.65
2023-03-28T07:00:44.642Z,17.42
2023-03-28T07:03:32.829Z,17.80
2023-03-28T07:06:06.207Z,17.79
2023-03-28T07:08:33.645Z,17.94
2023-03-28T07:11:03.112Z,17.96
2023-03-28T07:13:31.096Z,18.12
2023-03-28T07:16:12.869Z,18.22
2023-03-28T07:18:43.710Z,18.14
2023-03-28T07:21:19.310Z,17.79
2023-03-28T07:23:46.968Z,17.69
2023-03-28T07:26:19.587Z,17.88
2023-03-28T07:28:46.739Z,17.99
2023-03-28T07:31:14.180Z,17.52
2023-03-28T07:33:41.491Z,17.62
2023-03-28T07:36:15.881Z,17.55
2023-03-28T07:38:48.459Z,17.46
2023-03-28T07:41:17.174Z,17.42
2023-03-28T07:43:45.027Z,17.71
2023-03-28T07:46:16.797Z,17.40
2023-03-28T07:48:49.362Z,17.69
2023-03-28T07:51:19.835Z,17.52
2023-03-28T07:53:47.186Z,17.74
2023-03-28T07:56:15.094Z,17.59
2023-03-28T07:59:05.795Z,17.18
2023-03-28T08:01:33.712Z,17.19
2023-03-28T08:04:05.608Z,17.40
2023-03-28T08:06:42.215Z,17.58
2023-03-28T08:09:11.942Z,17.90
2023-03-28T08:11:45.452Z,17.92
2023-03-28T08:14:15.469Z,17.59
2023-03-28T08:16:44.133Z,17.74
2023-03-28T08:19:12.252Z,17.01
2023-03-28T08:22:14.482Z,17.36
2023-03-28T08:24:51.448Z,17.81
2023-03-28T08:27:21.732Z,17.99
2023-03-28T08:29:53.017Z,18.15
2023-03-28T08:32:20.381Z,17.84
2023-03-28T08:34:48.292Z,18.33
2023-03-28T08:37:18.615Z,18.80
2023-03-28T08:39:48.854Z,19.10
2023-03-28T08:42:57.292Z,19.29
2023-03-28T08:45:43.448Z,19.86
2023-03-28T08:48:28.315Z,20.02
2023-03-28T08:51:18.373Z,20.28
2023-03-28T08:54:19.686Z,20.81
2023-03-28T08:56:58.091Z,20.60
2023-03-28T09:00:09.333Z,20.69
2023-03-28T09:02:36.797Z,20.84
2023-03-28T09:05:25.198Z,20.51
2023-03-28T09:08:20.809Z,20.16
2023-03-28T09:11:04.890Z,19.91
2023-03-28T09:13:50.571Z,20.28
2023-03-28T09:16:45.749Z,20.08
2023-03-28T09:19:53.070Z,19.52
2023-03-28T09:23:22.602Z,19.92
2023-03-28T09:26:33.149Z,19.67
2023-03-28T09:29:09.230Z,20.05
2023-03-28T09:31:49.660Z,19.87
2023-03-28T09:34:27.879Z,19.63
2023-03-28T09:37:05.941Z,19.84
2023-03-28T09:39:45.319Z,19.71
2023-03-28T09:42:45.052Z,20.17
2023-03-28T09:46:12.181Z,20.03
2023-03-28T09:49:02.174Z,20.66
2023-03-28T09:51:32.913Z,21.11
2023-03-28T09:54:06.225Z,21.65
2023-03-28T09:56:38.052Z,21.81
2023-03-28T09:59:31.183Z,21.64
2023-03-28T10:02:07.751Z,21.62
2023-03-28T10:04:40.181Z,21.30
2023-03-28T10:07:48.489Z,21.66
2023-03-28T10:10:25.397Z,21.90
2023-03-28T10:13:04.830Z,21.92
2023-03-28T10:15:40.836Z,21.29
2023-03-28T10:18:22.138Z,20.83
2023-03-28T10:21:18.873Z,20.53
2023-03-28T10:24:02.599Z,20.78
2023-03-28T10:26:34.406Z,20.92
2023-03-28T10:29:09.232Z,21.37
2023-03-28T10:31:39.768Z,21.42
2023-03-28T10:34:31.262Z,21.80
2023-03-28T10:37:04.506Z,21.59
2023-03-28T10:40:02.698Z,21.14
2023-03-28T10:42:57.480Z,21.21
2023-03-28T10:45:51.649Z,20.94
2023-03-28T10:48:42.084Z,20.67
2023-03-28T10:51:19.811Z,20.07
2023-03-28T10:53:57.309Z,19.55
2023-03-28T10:56:42.968Z,19.63
2023-03-28T10:59:41.510Z,19.43
2023-03-28T11:02:23.170Z,19.25
2023-03-28T11:05:02.112Z,18.70
2023-03-28T11:07:54.977Z,18.55
2023-03-28T11:11:37.231Z,18.28
2023-03-28T11:14:45.195Z,18.59
2023-03-28T11:17:25.034Z,18.09
2023-03-28T11:20:00.548Z,18.50
2023-03-28T11:23:06.225Z,19.04
2023-03-28T11:25:58.059Z,19.40
2023-03-28T11:29:13.983Z,19.49
2023-03-28T11:32:13.500Z,19.54
2023-03-28T11:34:52.761Z,19.91
2023-03-28T11:37:29.880Z,18.61
2023-03-28T11:40:19.995Z,19.42
2023-03-28T11:43:05.117Z,18.76
2023-03-28T11:45:52.942Z,18.61
2023-03-28T11:48:31.536Z,19.36
2023-03-28T11:51:27.785Z,19.02
2023-03-28T11:54:09.866Z,18.22
2023-03-28T11:57:29.629Z,18.06
2023-03-28T12:00:32.143Z,18.52
2023-03-28T12:03:43.271Z,18.86
2023-03-28T12:06:30.956Z,18.35
2023-03-28T12:09:07.054Z,18.41
2023-03-28T12:14:50.674Z,19.18
2023-03-28T12:17:35.189Z,18.86
2023-03-28T12:20:02.735Z,18.68
2023-03-28T12:22:52.813Z,18.90
2023-03-28T12:25:51.212Z,18.87
2023-03-28T12:28:43.849Z,18.70
2023-03-28T12:31:33.588Z,18.47
2023-03-28T12:34:43.743Z,18.39
2023-03-28T12:37:29.343Z,19.85
2023-03-28T12:40:33.530Z,18.91
2023-03-28T12:43:01.853Z,19.32
2023-03-28T12:45:43.619Z,19.82
2023-03-28T12:48:19.724Z,19.97
2023-03-28T12:50:56.770Z,19.59
2023-03-28T12:53:32.762Z,19.15
2023-03-28T12:56:03.637Z,18.89
2023-03-28T12:58:36.777Z,18.78
2023-03-28T13:01:39.350Z,19.07
2023-03-28T13:04:46.700Z,18.68
2023-03-28T13:07:35.781Z,18.76
2023-03-28T13:10:59.893Z,18.46
2023-03-28T13:13:40.497Z,18.51
2023-03-28T13:16:40.831Z,18.81
2023-03-28T13:19:18.433Z,18.65
2023-03-28T13:21:58.471Z,18.31
2023-03-28T13:24:26.163Z,18.48
2023-03-28T13:26:59.976Z,18.27
2023-03-28T13:29:48.023Z,18.36
2023-03-28T13:32:23.822Z,18.17
2023-03-28T13:35:04.456Z,18.44
2023-03-28T13:37:44.199Z,18.72
2023-03-28T13:40:50.881Z,18.37
2023-03-28T13:43:29.723Z,18.41
2023-03-28T13:46:02.020Z,18.89
2023-03-28T13:48:35.063Z,18.54
2023-03-28T13:51:07.012Z,18.97
2023-03-28T13:53:47.412Z,18.64
2023-03-28T13:56:28.113Z,18.86
2023-03-28T13:58:58.866Z,18.69
2023-03-28T14:01:44.061Z,18.84
2023-03-28T14:04:19.756Z,18.69
2023-03-28T14:07:02.951Z,18.43
2023-03-28T14:09:33.248Z,18.70
2023-03-28T14:12:14.578Z,18.69
2023-03-28T14:14:59.238Z,18.88
2023-03-28T14:17:33.886Z,19.07
2023-03-28T14:20:05.787Z,19.14
2023-03-28T14:22:45.759Z,19.32
2023-03-28T14:25:22.926Z,19.45
2023-03-28T14:27:52.789Z,19.25
2023-03-28T14:30:39.425Z,19.17
2023-03-28T14:33:33.165Z,18.70
2023-03-28T14:36:06.584Z,18.58
2023-03-28T14:38:36.378Z,18.68
2023-03-28T14:41:25.176Z,18.61
2023-03-28T14:43:55.642Z,18.69
2023-03-28T14:46:26.922Z,18.69
2023-03-28T14:48:59.649Z,18.97
2023-03-28T14:51:31.026Z,18.63
2023-03-28T14:53:58.147Z,18.73
2023-03-28T14:56:35.055Z,18.64
2023-03-28T14:59:04.593Z,18.82
2023-03-28T15:01:34.037Z,18.75
2023-03-28T15:04:19.182Z,19.16
2023-03-28T15:06:55.855Z,18.78
2023-03-28T15:09:34.240Z,19.01
2023-03-28T15:12:07.060Z,18.77
2023-03-28T15:14:41.630Z,19.17
2023-03-28T15:17:24.106Z,18.88
2023-03-28T15:20:14.048Z,18.97
2023-03-28T15:22:42.076Z,18.78
2023-03-28T15:25:16.392Z,19.13
2023-03-28T15:27:54.577Z,19.30
2023-03-28T15:30:54.916Z,19.24
2023-03-28T15:33:26.212Z,19.43
2023-03-28T15:36:20.120Z,19.40
2023-03-28T15:38:50.674Z,19.51
2023-03-28T15:41:34.865Z,19.36
2023-03-28T15:44:28.806Z,19.54
2023-03-28T15:47:03.833Z,19.27
2023-03-28T15:49:38.928Z,19.33
2023-03-28T15:52:21.055Z,19.71
2023-03-28T15:54:56.076Z,19.57
2023-03-28T15:57:40.019Z,19.29
2023-03-28T16:00:30.710Z,19.25
2023-03-28T16:03:24.350Z,19.39
2023-03-28T16:06:23.110Z,18.97
2023-03-28T16:09:14.758Z,19.54
2023-03-28T16:11:42.081Z,19.82
2023-03-28T16:14:36.524Z,19.41
2023-03-28T16:17:29.189Z,18.52
2023-03-28T16:20:20.342Z,19.22
2023-03-28T16:22:48.958Z,19.02
2023-03-28T16:25:16.069Z,19.36
2023-03-28T16:27:43.747Z,19.05
2023-03-28T16:30:27.368Z,19.33
2023-03-28T16:32:56.907Z,19.10
2023-03-28T16:35:25.091Z,18.53
2023-03-28T16:37:53.220Z,19.08
2023-03-28T16:40:29.406Z,18.99
2023-03-28T16:43:00.249Z,19.07
2023-03-28T16:45:30.592Z,19.32
2023-03-28T16:47:58.068Z,19.29
2023-03-28T16:50:25.283Z,18.76
2023-03-28T16:52:52.687Z,18.63
2023-03-28T16:55:19.781Z,18.91
2023-03-28T16:57:49.360Z,18.89
2023-03-28T17:00:20.266Z,18.85
2023-03-28T17:02:48.203Z,19.13
2023-03-28T17:05:16.972Z,19.17
2023-03-28T17:07:44.182Z,18.98
2023-03-28T17:10:14.609Z,19.30
2023-03-28T17:12:47.987Z,19.15
2023-03-28T17:15:15.592Z,18.32
2023-03-28T17:17:44.195Z,18.56
2023-03-28T17:20:11.924Z,18.58
2023-03-28T17:22:42.576Z,18.85
2023-03-28T17:25:10.211Z,18.70
2023-03-28T17:27:40.744Z,18.97
2023-03-28T17:30:16.495Z,19.02
2023-03-28T17:32:43.897Z,18.74
2023-03-28T17:35:12.400Z,19.05
2023-03-28T17:37:43.217Z,18.45
2023-03-28T17:40:10.986Z,18.27
2023-03-28T17:42:38.528Z,18.55
2023-03-28T17:45:09.279Z,18.50
2023-03-28T17:47:36.678Z,18.51
2023-03-28T17:50:03.966Z,18.67
2023-03-28T17:52:31.995Z,18.21
2023-03-28T17:55:15.176Z,18.32
2023-03-28T17:57:56.633Z,18.79
2023-03-28T18:00:29.022Z,18.30
2023-03-28T18:03:17.413Z,17.58
2023-03-28T18:06:02.590Z,17.95
2023-03-28T18:08:31.748Z,18.11
2023-03-28T18:11:08.100Z,18.37
2023-03-28T18:16:20.035Z,18.19
2023-03-28T18:18:55.099Z,17.99
2023-03-28T18:21:22.297Z,18.07
2023-03-28T18:23:49.786Z,17.71
2023-03-28T18:26:17.498Z,17.53
2023-03-28T18:28:47.477Z,17.78
2023-03-28T18:31:19.715Z,17.95
2023-03-28T18:33:49.204Z,17.91
2023-03-28T18:36:19.297Z,17.84
2023-03-28T18:38:50.708Z,18.03
2023-03-28T18:41:17.874Z,17.37
2023-03-28T18:43:45.839Z,17.68
2023-03-28T18:46:16.357Z,18.00
2023-03-28T18:48:45.029Z,17.88
2023-03-28T18:51:12.631Z,17.66
2023-03-28T18:53:47.645Z,17.80
2023-03-28T18:56:15.383Z,17.94
2023-03-28T18:58:43.998Z,18.31
2023-03-28T19:01:14.108Z,17.61
2023-03-28T19:03:43.282Z,18.10
2023-03-28T19:06:19.000Z,17.78
2023-03-28T19:08:47.617Z,18.02
2023-03-28T19:11:17.140Z,17.89
2023-03-28T19:13:44.414Z,17.67
2023-03-28T19:16:16.684Z,17.84
2023-03-28T19:18:48.955Z,18.22
2023-03-28T19:21:17.294Z,17.82
2023-03-28T19:23:51.717Z,17.76
2023-03-28T19:26:25.160Z,17.85
2023-03-28T19:29:05.013Z,18.16
2023-03-28T19:31:35.768Z,18.03
2023-03-28T19:34:03.558Z,17.78
2023-03-28T19:36:33.936Z,17.94
2023-03-28T19:39:02.437Z,18.24
2023-03-28T19:41:31.729Z,18.28
2023-03-28T19:44:04.558Z,18.38
2023-03-28T19:46:35.468Z,18.14
2023-03-28T19:49:07.190Z,17.92
2023-03-28T19:51:37.759Z,18.36
2023-03-28T19:54:05.141Z,18.59
2023-03-28T19:56:32.626Z,18.51
2023-03-28T19:58:59.894Z,18.25
2023-03-28T20:01:27.415Z,18.43
2023-03-28T20:03:54.674Z,18.54
2023-03-28T20:06:23.877Z,18.54
2023-03-28T20:08:54.119Z,18.50
2023-03-28T20:11:22.344Z,18.64
2023-03-28T20:13:52.640Z,18.74
2023-03-28T20:16:23.341Z,18.61
2023-03-28T20:21:57.264Z,18.39
2023-03-28T20:24:27.782Z,18.66
2023-03-28T20:26:57.657Z,18.39
2023-03-28T20:29:31.373Z,18.56
2023-03-28T20:35:10.150Z,18.64
2023-03-28T20:37:38.046Z,18.68
2023-03-28T20:40:17.576Z,18.78
2023-03-28T20:42:54.547Z,18.88
2023-03-28T20:45:29.432Z,18.88
2023-03-28T20:48:06.453Z,18.86
2023-03-28T20:50:41.711Z,18.86
2023-03-28T20:53:15.280Z,18.85
2023-03-28T20:55:45.784Z,18.81
2023-03-28T20:58:14.400Z,18.88
2023-03-28T21:00:48.020Z,18.62
2023-03-28T21:03:18.934Z,18.49
2023-03-28T21:05:58.425Z,18.65
2023-03-28T21:08:31.260Z,18.79
2023-03-28T21:10:59.013Z,18.71
2023-03-28T21:13:28.629Z,18.34
2023-03-28T21:15:58.829Z,18.57
2023-03-28T21:18:26.311Z,18.57
2023-03-28T21:20:56.828Z,18.43
2023-03-28T21:23:24.844Z,18.56
2023-03-28T21:25:55.842Z,18.71
2023-03-28T21:28:23.644Z,18.69
2023-03-28T21:31:02.034Z,18.46
2023-03-28T21:33:30.643Z,18.44
2023-03-28T21:36:02.138Z,18.48
2023-03-28T21:38:31.020Z,18.44
2023-03-28T21:40:59.566Z,18.51
2023-03-28T21:43:31.683Z,18.63
2023-03-28T21:45:59.554Z,18.55
2023-03-28T21:48:27.278Z,18.61
2023-03-28T21:51:00.043Z,18.67
2023-03-28T21:53:30.235Z,18.73
2023-03-28T21:55:59.447Z,18.77
2023-03-28T21:58:33.308Z,18.58
2023-03-28T22:01:03.103Z,18.66
2023-03-28T22:03:31.887Z,18.75
2023-03-28T22:05:59.138Z,18.76
2023-03-28T22:08:27.566Z,18.78
2023-03-28T22:11:01.601Z,18.78
2023-03-28T22:13:30.017Z,18.83
2023-03-28T22:16:01.013Z,18.79
2023-03-28T22:18:30.820Z,18.84
2023-03-28T22:21:02.669Z,18.85
2023-03-28T22:23:30.218Z,18.86
2023-03-28T22:25:58.782Z,18.87
2023-03-28T22:28:26.960Z,18.79
2023-03-28T22:30:55.417Z,18.81
2023-03-28T22:33:25.694Z,18.78
2023-03-28T22:35:53.467Z,18.78
2023-03-28T22:38:20.902Z,18.76
2023-03-28T22:40:50.398Z,18.72
2023-03-28T22:43:20.635Z,18.71
2023-03-28T22:45:47.898Z,18.61
2023-03-28T22:48:15.776Z,18.55
2023-03-28T22:50:44.565Z,18.63
2023-03-28T22:53:16.425Z,18.59
2023-03-28T22:55:47.193Z,18.63
2023-03-28T22:58:15.063Z,18.62
2023-03-28T23:00:46.285Z,18.59
2023-03-28T23:03:14.344Z,18.57
2023-03-28T23:05:41.596Z,18.62
2023-03-28T23:08:10.706Z,18.57
2023-03-28T23:10:38.604Z,18.56
2023-03-28T23:13:06.088Z,18.52
2023-03-28T23:15:33.307Z,18.45
2023-03-28T23:18:04.039Z,18.52
2023-03-28T23:20:31.649Z,18.53
2023-03-28T23:22:58.939Z,18.56
2023-03-28T23:25:30.136Z,18.55
2023-03-28T23:27:57.425Z,18.49
2023-03-28T23:30:24.568Z,18.55
2023-03-28T23:32:54.297Z,18.50
2023-03-28T23:35:24.700Z,18.50
2023-03-28T23:37:53.443Z,18.42
2023-03-28T23:40:23.496Z,18.40
2023-03-28T23:42:50.924Z,18.40
2023-03-28T23:45:18.585Z,18.42
2023-03-28T23:47:46.363Z,18.45
2023-03-28T23:50:14.005Z,18.50
2023-03-28T23:52:41.253Z,18.48
2023-03-28T23:55:09.222Z,18.45
2023-03-28T23:57:36.992Z,18.40
